Terminal Aerodrome Forecast
Issued by NWS Shreveport, LA

Home | Current Version | Previous Version | Text Only | Print | Product List | Glossary On
Versions: 1 2 3 4 5 6 7 8 9 10 11 12 13 14 15 16 17 18 19 20 21 22 23 24
000
FTUS44 KSHV 272355
TAFMLU
TAF
KMLU 272355Z 2800/2824 06014G19KT P6SM SKC
     FM280600 05011G17KT P6SM VCSH BKN025
     FM280900 04010G15KT 5SM -SHRA VCTS BKN008 OVC015CB
      TEMPO 2810/2814 3SM -TSRA BR OVC015CB
     FM281800 03010G15KT 5SM BR VCSH BKN010 OVC020=

USA.gov is the U.S. government's official web portal to all federal, state and local government web resources and services.